createdAt,value
2023-04-24T00:17:25.345Z,19.60
2023-04-24T00:32:28.108Z,19.80
2023-04-24T00:47:31.537Z,19.20
2023-04-24T01:02:35.621Z,21.30
2023-04-24T01:17:39.692Z,19.00
2023-04-24T01:32:45.533Z,19.80
2023-04-24T01:47:50.005Z,21.70
2023-04-24T02:02:53.256Z,22.50
2023-04-24T02:17:56.118Z,19.70
2023-04-24T02:32:59.156Z,21.10
2023-04-24T02:48:01.820Z,23.80
2023-04-24T03:03:04.797Z,21.00
2023-04-24T03:18:07.594Z,22.90
2023-04-24T03:33:10.864Z,21.20
2023-04-24T03:48:13.755Z,24.20
2023-04-24T04:03:17.306Z,25.50
2023-04-24T04:18:20.244Z,59.00
2023-04-24T04:33:23.365Z,22.10
2023-04-24T05:03:28.774Z,22.00
2023-04-24T05:18:31.724Z,22.80
2023-04-24T05:33:34.449Z,17.20
2023-04-24T05:48:37.236Z,15.40
2023-04-24T06:03:40.559Z,16.80
2023-04-24T06:18:43.597Z,11.30
2023-04-24T06:33:46.745Z,11.60
2023-04-24T06:48:49.576Z,10.80
2023-04-24T07:03:52.229Z,11.50
2023-04-24T07:18:54.965Z,14.20
2023-04-24T07:33:59.199Z,10.90
2023-04-24T07:49:12.459Z,12.50
2023-04-24T08:04:16.812Z,10.10
2023-04-24T08:19:19.595Z,8.80
2023-04-24T08:34:22.894Z,9.20
2023-04-24T08:49:26.812Z,9.60
2023-04-24T09:04:31.202Z,13.20
2023-04-24T09:19:34.145Z,11.40
2023-04-24T09:34:36.778Z,10.30
2023-04-24T09:49:40.243Z,11.30
2023-04-24T10:04:55.030Z,9.70
2023-04-24T10:19:59.627Z,12.10
2023-04-24T10:35:02.264Z,10.40
2023-04-24T10:50:11.140Z,12.30
2023-04-24T11:05:16.030Z,11.10
2023-04-24T11:20:27.682Z,10.60
2023-04-24T11:35:36.762Z,9.30
2023-04-24T11:50:40.093Z,11.80
2023-04-24T12:05:43.206Z,10.10
2023-04-24T12:20:46.325Z,10.70
2023-04-24T12:35:54.238Z,12.90
2023-04-24T12:51:02.631Z,12.00
2023-04-24T13:06:06.684Z,10.90
2023-04-24T13:21:09.344Z,9.60
2023-04-24T13:36:12.191Z,9.80
2023-04-24T13:51:15.020Z,5.50
2023-04-24T14:06:18.577Z,6.40
2023-04-24T14:21:21.598Z,2.50
2023-04-24T14:36:24.299Z,4.90
2023-04-24T14:51:28.136Z,5.50
2023-04-24T15:06:32.525Z,10.00
2023-04-24T15:21:37.338Z,7.00
2023-04-24T15:36:39.978Z,6.50
2023-04-24T16:51:53.042Z,7.60
2023-04-24T17:06:55.947Z,9.00
2023-04-24T17:21:59.154Z,11.10
2023-04-24T17:37:02.316Z,9.20
2023-04-24T17:52:06.134Z,29.90
2023-04-24T18:07:08.821Z,16.10
2023-04-24T18:37:14.612Z,13.00
2023-04-24T18:52:17.254Z,13.20
2023-04-24T19:07:20.699Z,12.40
2023-04-24T19:22:24.437Z,15.90
2023-04-24T19:37:27.260Z,14.90
2023-04-24T19:52:29.953Z,11.30
2023-04-24T20:07:32.646Z,14.80
2023-04-24T20:22:38.996Z,14.00
2023-04-24T20:37:42.404Z,15.40
2023-04-24T20:52:50.308Z,15.50
2023-04-24T21:07:56.055Z,12.40
2023-04-24T21:22:58.874Z,11.60
2023-04-24T21:38:02.097Z,10.60
2023-04-24T21:53:04.720Z,12.80
2023-04-24T22:08:07.431Z,10.90
2023-04-24T22:38:13.364Z,7.80
2023-04-24T22:53:16.459Z,8.30
2023-04-24T23:08:19.153Z,6.80
2023-04-24T23:23:21.926Z,6.80
2023-04-24T23:53:27.186Z,6.40
